Time;durP1;ratioP1;P1;durP2;ratioP2;P2;SDS_P1;SDS_P2;PMS_P1;PMS_P2;Temp;Humidity;BMP_temperature;BMP_pressure;BME280_temperature;BME280_humidity;BME280_pressure;Samples;Min_cycle;Max_cycle;Signal;HPM_P1;HPM_P2
2021/01/17 00:00:16;;;;;;;25.13;13.53;;;13.70;2201.60;;;;;;5106545;28;20040;-57
2021/01/17 00:02:44;;;;;;;26.23;12.83;;;38.50;2201.60;;;;;;5108089;28;20016;-57
2021/01/17 00:05:12;;;;;;;23.55;11.63;;;38.50;2201.60;;;;;;5110966;28;20134;-60
2021/01/17 00:07:38;;;;;;;26.60;14.13;;;38.40;2201.60;;;;;;5110030;28;20073;-60
2021/01/17 00:10:09;;;;;;;22.23;12.50;;;38.60;2201.60;;;;;;5111443;28;20437;-60
2021/01/17 00:12:35;;;;;;;26.53;12.33;;;38.50;2201.60;;;;;;5111553;28;20024;-59
2021/01/17 00:15:01;;;;;;;26.17;13.33;;;38.50;2201.60;;;;;;5103736;28;20489;-58
2021/01/17 00:17:27;;;;;;;24.97;12.67;;;38.50;2201.60;;;;;;5110353;28;20024;-58
2021/01/17 00:19:56;;;;;;;27.83;13.90;;;38.50;2201.60;;;;;;5106248;28;20424;-59
2021/01/17 00:22:22;;;;;;;27.33;14.07;;;38.40;2201.60;;;;;;5092020;28;20024;-58
2021/01/17 00:24:48;;;;;;;29.38;13.07;;;13.70;2176.00;;;;;;5092095;28;20026;-59
2021/01/17 00:27:14;;;;;;;28.92;13.98;;;13.70;2176.00;;;;;;5092651;28;20450;-59
2021/01/17 00:29:41;;;;;;;30.50;14.07;;;13.60;2150.40;;;;;;5091236;28;20024;-59
2021/01/17 00:32:11;;;;;;;31.33;14.03;;;13.60;2176.00;;;;;;5091930;28;20035;-60
2021/01/17 00:34:38;;;;;;;31.40;15.83;;;13.70;2176.00;;;;;;5088682;28;20415;-59
2021/01/17 00:37:04;;;;;;;30.07;14.17;;;13.60;2176.00;;;;;;5092509;28;20107;-60
2021/01/17 00:39:30;;;;;;;24.70;12.53;;;13.60;2176.00;;;;;;5092006;28;20119;-59
2021/01/17 00:41:55;;;;;;;27.83;13.70;;;13.60;2176.00;;;;;;5092036;28;20056;-59
2021/01/17 00:44:21;;;;;;;27.00;13.13;;;13.50;2176.00;;;;;;5092169;28;20117;-59
2021/01/17 00:46:47;;;;;;;28.90;13.73;;;13.50;2176.00;;;;;;5091887;28;20020;-60
2021/01/17 00:49:12;;;;;;;29.47;13.83;;;13.50;2176.00;;;;;;5091957;28;20035;-59
2021/01/17 00:51:44;;;;;;;29.40;13.63;;;13.40;2150.40;;;;;;5092004;28;20027;-59
2021/01/17 00:54:10;;;;;;;26.37;13.20;;;13.30;2150.40;;;;;;5095449;28;20470;-59
2021/01/17 00:56:37;;;;;;;23.67;12.73;;;13.40;2150.40;;;;;;5095641;28;20087;-58
2021/01/17 00:59:04;;;;;;;26.57;13.20;;;13.30;2150.40;;;;;;5095663;28;20040;-58
2021/01/17 01:01:36;;;;;;;25.60;12.67;;;13.20;2150.40;;;;;;5095587;28;20012;-59
2021/01/17 01:04:02;;;;;;;26.73;13.83;;;13.30;2124.80;;;;;;5095310;28;20020;-58
2021/01/17 01:06:28;;;;;;;24.57;12.40;;;13.30;2150.40;;;;;;5097693;28;20081;-58
2021/01/17 01:08:53;;;;;;;27.63;13.03;;;13.30;2150.40;;;;;;5112272;28;20020;-59
2021/01/17 01:11:20;;;;;;;26.60;13.23;;;13.30;2124.80;;;;;;5103188;28;20055;-58
2021/01/17 01:13:47;;;;;;;30.30;14.20;;;13.30;2150.40;;;;;;5109265;28;20017;-58
2021/01/17 01:16:14;;;;;;;28.33;13.37;;;13.30;2150.40;;;;;;5105696;28;20032;-58
2021/01/17 01:18:40;;;;;;;25.47;14.47;;;13.30;2150.40;;;;;;5094968;28;20032;-58
2021/01/17 01:21:06;;;;;;;26.10;13.00;;;13.20;2150.40;;;;;;5095003;28;20499;-59
2021/01/17 01:23:31;;;;;;;29.60;13.77;;;13.20;2124.80;;;;;;5094924;28;20020;-58
2021/01/17 01:25:57;;;;;;;28.20;13.57;;;13.10;2124.80;;;;;;5109501;28;20024;-59
2021/01/17 01:28:23;;;;;;;23.77;13.37;;;13.20;2124.80;;;;;;5101865;28;20024;-58
2021/01/17 01:30:49;;;;;;;23.38;12.73;;;13.30;2150.40;;;;;;5102353;28;20462;-58
2021/01/17 01:33:15;;;;;;;25.53;13.30;;;13.20;2124.80;;;;;;5113824;28;20058;-58
2021/01/17 01:35:40;;;;;;;28.43;14.90;;;13.10;2099.20;;;;;;5115660;28;20032;-58
2021/01/17 01:38:08;;;;;;;28.07;13.97;;;13.10;2124.80;;;;;;5115213;28;20034;-58
2021/01/17 01:40:33;;;;;;;26.20;13.65;;;13.20;2124.80;;;;;;5107757;28;20101;-66
2021/01/17 01:42:59;;;;;;;27.07;13.63;;;13.20;2124.80;;;;;;5110789;28;20454;-66
2021/01/17 01:45:25;;;;;;;28.77;14.47;;;13.40;2150.40;;;;;;5116913;28;20023;-64
2021/01/17 01:47:50;;;;;;;29.10;14.23;;;13.60;2201.60;;;;;;5117377;28;20054;-65
2021/01/17 01:50:16;;;;;;;29.60;14.23;;;13.50;2201.60;;;;;;5117618;28;20043;-64
2021/01/17 01:52:42;;;;;;;29.87;15.20;;;13.50;2201.60;;;;;;5116235;28;20362;-58
2021/01/17 01:55:09;;;;;;;26.80;14.60;;;13.50;2201.60;;;;;;5115057;28;20027;-61
2021/01/17 01:57:35;;;;;;;25.10;13.40;;;13.50;2201.60;;;;;;5114852;28;20149;-58
2021/01/17 02:00:04;;;;;;;25.93;13.33;;;13.40;2201.60;;;;;;5099506;28;20028;-58
2021/01/17 02:02:39;;;;;;;28.00;13.83;;;13.40;2201.60;;;;;;5094281;28;20024;-57
2021/01/17 02:05:05;;;;;;;29.88;14.75;;;13.60;2201.60;;;;;;5092936;28;20047;-58
2021/01/17 02:08:02;;;;;;;32.67;16.50;;;13.60;2201.60;;;;;;5094190;28;20032;-57
2021/01/17 02:10:28;;;;;;;29.23;15.50;;;13.50;2201.60;;;;;;5093717;28;20062;-58
2021/01/17 02:13:06;;;;;;;32.63;15.93;;;38.40;2201.60;;;;;;5094001;28;20051;-58
2021/01/17 02:15:35;;;;;;;30.00;15.38;;;38.60;2201.60;;;;;;5095310;28;20030;-58
2021/01/17 02:18:04;;;;;;;30.63;16.07;;;38.70;2201.60;;;;;;5114703;28;20032;-58
2021/01/17 02:20:32;;;;;;;30.67;16.77;;;38.50;2201.60;;;;;;5114273;28;20024;-58
2021/01/17 02:23:00;;;;;;;31.13;16.33;;;13.60;2201.60;;;;;;5114234;28;20061;-58
2021/01/17 02:25:31;;;;;;;32.63;17.40;;;13.60;2201.60;;;;;;5101333;28;20024;-59
2021/01/17 02:27:59;;;;;;;29.67;15.23;;;13.60;2201.60;;;;;;5113761;28;20080;-58
2021/01/17 02:30:28;;;;;;;29.08;14.95;;;13.50;2201.60;;;;;;5114306;28;20015;-58
2021/01/17 02:33:01;;;;;;;26.65;14.25;;;13.70;2201.60;;;;;;5109669;28;20031;-59
2021/01/17 02:35:30;;;;;;;26.30;14.23;;;38.40;2201.60;;;;;;5105360;28;20019;-58
2021/01/17 02:38:29;;;;;;;28.90;14.57;;;13.70;2201.60;;;;;;5108768;28;20032;-58
2021/01/17 02:41:13;;;;;;;33.70;16.07;;;13.70;2201.60;;;;;;5093646;28;20416;-60
2021/01/17 02:43:41;;;;;;;30.40;15.77;;;38.40;2201.60;;;;;;5093823;28;20066;-60
2021/01/17 02:46:07;;;;;;;29.13;16.20;;;38.40;2201.60;;;;;;5094037;28;20030;-58
2021/01/17 02:48:33;;;;;;;30.00;15.00;;;13.70;2201.60;;;;;;5080148;28;20109;-58
2021/01/17 02:50:59;;;;;;;29.97;15.17;;;13.60;2201.60;;;;;;5094425;28;20131;-58
2021/01/17 02:53:35;;;;;;;29.37;15.03;;;13.60;2201.60;;;;;;5094189;28;20073;-58
2021/01/17 02:56:06;;;;;;;30.93;16.60;;;13.50;2201.60;;;;;;5094496;28;20089;-59
2021/01/17 02:58:33;;;;;;;32.83;16.37;;;13.50;2201.60;;;;;;5094657;28;20043;-58
2021/01/17 03:01:01;;;;;;;31.53;15.97;;;13.50;2201.60;;;;;;5094701;28;20528;-58
2021/01/17 03:03:35;;;;;;;32.28;17.38;;;13.40;2201.60;;;;;;5093023;28;20016;-58
2021/01/17 03:06:06;;;;;;;29.13;15.83;;;13.50;2201.60;;;;;;5093520;28;20048;-58
2021/01/17 03:08:33;;;;;;;31.45;16.23;;;13.50;2201.60;;;;;;5093090;28;20073;-58
2021/01/17 03:10:58;;;;;;;29.73;16.80;;;13.60;2201.60;;;;;;5092920;28;20373;-57
2021/01/17 03:13:24;;;;;;;31.43;15.40;;;13.50;2201.60;;;;;;5092900;28;20016;-58
2021/01/17 03:15:51;;;;;;;28.83;16.03;;;13.60;2201.60;;;;;;5092541;28;20054;-58
2021/01/17 03:18:17;;;;;;;27.37;15.30;;;13.60;2201.60;;;;;;5093177;28;20044;-57
2021/01/17 03:20:42;;;;;;;30.33;16.73;;;13.50;2201.60;;;;;;5093080;28;20023;-57
2021/01/17 03:23:08;;;;;;;32.57;17.43;;;13.60;2201.60;;;;;;5092682;28;20107;-58
2021/01/17 03:25:33;;;;;;;33.53;17.57;;;13.70;2201.60;;;;;;5092835;28;20028;-58
2021/01/17 03:27:59;;;;;;;33.80;17.80;;;13.70;2201.60;;;;;;5092866;28;20024;-58
2021/01/17 03:30:25;;;;;;;33.53;18.00;;;13.70;2201.60;;;;;;5092859;28;20032;-57
2021/01/17 03:32:50;;;;;;;34.20;17.00;;;38.60;2201.60;;;;;;5095625;28;20365;-57
2021/01/17 03:35:16;;;;;;;28.63;16.77;;;38.40;2201.60;;;;;;5092997;28;20036;-58
2021/01/17 03:37:42;;;;;;;29.70;16.13;;;38.50;2201.60;;;;;;5098298;28;20035;-57
2021/01/17 03:40:08;;;;;;;28.77;14.60;;;38.40;2201.60;;;;;;5111607;28;20399;-58
2021/01/17 03:42:33;;;;;;;29.60;14.80;;;38.50;2201.60;;;;;;5100463;28;20482;-58
2021/01/17 03:44:59;;;;;;;27.13;14.47;;;38.40;2201.60;;;;;;5100271;28;20055;-57
2021/01/17 03:47:25;;;;;;;26.67;14.03;;;13.70;2201.60;;;;;;5112481;28;20117;-58
2021/01/17 03:49:51;;;;;;;28.13;14.73;;;38.40;2201.60;;;;;;5102001;28;20040;-58
2021/01/17 03:52:16;;;;;;;25.37;13.33;;;13.70;2201.60;;;;;;5109537;28;20023;-57
2021/01/17 03:54:42;;;;;;;27.53;13.67;;;13.50;2201.60;;;;;;5113235;28;20015;-58
2021/01/17 03:57:08;;;;;;;23.63;13.57;;;13.40;2201.60;;;;;;5112742;28;20028;-57
2021/01/17 03:59:33;;;;;;;24.93;14.10;;;13.70;2201.60;;;;;;5113021;28;20424;-58
2021/01/17 04:01:59;;;;;;;26.33;13.30;;;38.40;2201.60;;;;;;5112585;28;20024;-58
2021/01/17 04:04:25;;;;;;;21.93;13.00;;;13.70;2201.60;;;;;;5112729;28;20047;-58
2021/01/17 04:06:50;;;;;;;23.67;12.63;;;13.50;2201.60;;;;;;5102473;28;20040;-58
2021/01/17 04:09:16;;;;;;;25.80;14.47;;;13.40;2201.60;;;;;;5109071;28;20031;-58
2021/01/17 04:11:42;;;;;;;22.10;12.57;;;13.30;2201.60;;;;;;5103938;28;20028;-56
2021/01/17 04:14:08;;;;;;;22.97;12.00;;;13.30;2201.60;;;;;;5106752;28;20024;-58
2021/01/17 04:16:33;;;;;;;21.47;11.63;;;13.50;2201.60;;;;;;5112947;28;20024;-58
2021/01/17 04:18:59;;;;;;;23.07;12.43;;;13.40;2201.60;;;;;;5112943;28;20046;-58
2021/01/17 04:21:25;;;;;;;22.30;11.87;;;13.30;2201.60;;;;;;5112556;28;20457;-58
2021/01/17 04:23:50;;;;;;;23.47;13.23;;;13.30;2201.60;;;;;;5112643;28;20067;-58
2021/01/17 04:26:18;;;;;;;23.47;13.10;;;13.20;2201.60;;;;;;5112594;28;20476;-58
2021/01/17 04:28:44;;;;;;;24.53;12.80;;;13.50;2201.60;;;;;;5116176;28;20098;-58
2021/01/17 04:31:10;;;;;;;24.53;13.23;;;13.70;2201.60;;;;;;5116808;28;20107;-57
2021/01/17 04:33:36;;;;;;;23.23;12.70;;;13.50;2201.60;;;;;;5116831;28;20059;-58
2021/01/17 04:36:01;;;;;;;22.07;11.97;;;13.40;2201.60;;;;;;5103941;28;20552;-57
2021/01/17 04:38:30;;;;;;;24.60;13.68;;;13.20;2201.60;;;;;;5114813;28;20047;-57
2021/01/17 04:41:01;;;;;;;25.52;14.05;;;13.10;2201.60;;;;;;5106267;28;20028;-57
2021/01/17 04:43:34;;;;;;;22.38;12.35;;;13.10;2201.60;;;;;;5112713;28;20031;-58
2021/01/17 04:46:02;;;;;;;20.92;11.85;;;13.00;2201.60;;;;;;5116505;28;20019;-57
2021/01/17 04:48:29;;;;;;;26.85;13.30;;;0.00;2201.60;;;;;;5115710;28;20028;-58
2021/01/17 04:51:01;;;;;;;25.83;13.77;;;0.00;2201.60;;;;;;5116349;28;20449;-57
2021/01/17 04:53:37;;;;;;;27.08;14.20;;;0.20;2201.60;;;;;;5115956;28;20028;-58
2021/01/17 04:56:12;;;;;;;24.45;13.45;;;0.20;2201.60;;;;;;5115969;28;20076;-57
2021/01/17 04:58:42;;;;;;;26.80;14.55;;;13.10;2201.60;;;;;;5115872;28;20473;-58
2021/01/17 05:01:21;;;;;;;24.92;13.43;;;12.90;2201.60;;;;;;5107621;28;20099;-57
2021/01/17 05:03:58;;;;;;;22.95;12.60;;;13.00;2201.60;;;;;;5111859;28;20110;-58
2021/01/17 05:06:32;;;;;;;24.87;12.93;;;0.00;2201.60;;;;;;5115914;28;20054;-57
2021/01/17 05:09:02;;;;;;;25.15;13.52;;;13.00;2201.60;;;;;;5115713;28;20264;-58
2021/01/17 05:11:33;;;;;;;23.10;13.13;;;13.00;2201.60;;;;;;5115966;28;20020;-57
2021/01/17 05:14:35;;;;;;;24.80;13.83;;;13.10;2201.60;;;;;;5100659;28;20355;-58
2021/01/17 05:17:01;;;;;;;23.33;12.27;;;13.00;2201.60;;;;;;5115642;28;20027;-58
2021/01/17 05:19:27;;;;;;;20.95;11.65;;;13.00;2201.60;;;;;;5115673;28;20027;-58
2021/01/17 05:21:54;;;;;;;25.50;13.57;;;13.20;2201.60;;;;;;5104384;28;20081;-57
2021/01/17 05:24:21;;;;;;;19.35;10.65;;;13.10;2201.60;;;;;;5112562;28;20462;-58
2021/01/17 05:26:55;;;;;;;24.93;12.23;;;13.20;2201.60;;;;;;5105918;28;20032;-57
2021/01/17 05:29:22;;;;;;;24.57;12.83;;;13.10;2201.60;;;;;;5111865;28;20055;-58
2021/01/17 05:31:50;;;;;;;24.50;13.57;;;13.20;2201.60;;;;;;5115673;28;20062;-58
2021/01/17 05:34:19;;;;;;;26.45;13.32;;;13.40;2201.60;;;;;;5115321;28;20115;-57
2021/01/17 05:36:46;;;;;;;22.50;12.37;;;13.50;2201.60;;;;;;5113918;28;20465;-57
2021/01/17 05:39:12;;;;;;;23.73;12.43;;;13.50;2201.60;;;;;;5094358;28;20056;-58
2021/01/17 05:41:38;;;;;;;23.43;12.47;;;13.40;2201.60;;;;;;5098606;28;20042;-58
2021/01/17 05:44:04;;;;;;;25.90;13.07;;;13.50;2201.60;;;;;;5107128;28;20370;-58
2021/01/17 05:46:30;;;;;;;22.17;11.60;;;13.50;2201.60;;;;;;5102670;28;20040;-57
2021/01/17 05:49:12;;;;;;;23.60;12.37;;;13.50;2201.60;;;;;;5114000;28;20066;-58
2021/01/17 05:51:38;;;;;;;27.10;12.10;;;13.50;2201.60;;;;;;5115536;28;20027;-58
2021/01/17 05:54:13;;;;;;;23.50;12.37;;;13.40;2201.60;;;;;;5099926;28;20020;-58
2021/01/17 05:56:40;;;;;;;23.67;12.17;;;13.50;2201.60;;;;;;5108845;28;20023;-58
2021/01/17 05:59:06;;;;;;;25.73;12.80;;;13.60;2201.60;;;;;;5101757;28;20050;-58
2021/01/17 06:01:33;;;;;;;21.47;12.33;;;13.60;2201.60;;;;;;5115051;28;20505;-58
2021/01/17 06:04:09;;;;;;;22.93;12.33;;;38.50;2201.60;;;;;;5114268;28;20462;-59
2021/01/17 06:06:36;;;;;;;24.13;12.77;;;38.70;2201.60;;;;;;5102306;28;20039;-57
2021/01/17 06:09:03;;;;;;;25.00;12.73;;;38.70;2201.60;;;;;;5094294;28;20021;-58
2021/01/17 06:11:29;;;;;;;21.43;11.27;;;38.50;2201.60;;;;;;5105158;28;20377;-58
2021/01/17 06:14:00;;;;;;;23.03;13.27;;;38.50;2201.60;;;;;;5114460;28;20023;-58
2021/01/17 06:16:40;;;;;;;25.53;11.70;;;38.60;2201.60;;;;;;5114455;28;20020;-58
2021/01/17 06:19:07;;;;;;;25.33;12.20;;;38.70;2201.60;;;;;;5096054;28;20399;-60
2021/01/17 06:21:33;;;;;;;26.23;13.77;;;38.50;2201.60;;;;;;5114393;28;20028;-60
2021/01/17 06:24:01;;;;;;;25.23;12.63;;;38.50;2201.60;;;;;;5106559;28;20095;-59
2021/01/17 06:26:29;;;;;;;22.43;13.13;;;38.60;2201.60;;;;;;5094014;28;20112;-58
2021/01/17 06:28:55;;;;;;;25.95;13.00;;;38.50;2201.60;;;;;;5093906;28;20257;-58
2021/01/17 06:31:27;;;;;;;23.03;12.03;;;38.40;2201.60;;;;;;5094333;28;20362;-57
2021/01/17 06:34:05;;;;;;;26.50;13.77;;;38.40;2201.60;;;;;;5086069;28;20070;-58
2021/01/17 06:36:32;;;;;;;24.00;12.90;;;13.60;2201.60;;;;;;5093611;28;20056;-58
2021/01/17 06:38:58;;;;;;;27.47;12.13;;;13.70;2201.60;;;;;;5093657;28;20050;-57
2021/01/17 06:41:42;;;;;;;24.30;13.17;;;13.70;2201.60;;;;;;5093943;28;20081;-58
2021/01/17 06:44:13;;;;;;;27.33;13.60;;;13.60;2201.60;;;;;;5086407;28;20017;-58
2021/01/17 06:46:44;;;;;;;26.63;13.87;;;13.60;2201.60;;;;;;5102627;28;20099;-58
2021/01/17 06:49:24;;;;;;;27.33;13.20;;;13.60;2201.60;;;;;;5113765;28;20085;-58
2021/01/17 06:51:52;;;;;;;23.67;11.97;;;13.40;2201.60;;;;;;5107415;28;20024;-57
2021/01/17 06:54:19;;;;;;;24.97;12.20;;;13.40;2201.60;;;;;;5098893;28;20369;-57
2021/01/17 06:56:47;;;;;;;24.40;13.20;;;13.40;2201.60;;;;;;5113811;28;20028;-58
2021/01/17 06:59:13;;;;;;;29.67;18.10;;;13.20;2201.60;;;;;;5113196;28;20036;-57
2021/01/17 07:01:43;;;;;;;28.70;15.80;;;13.70;2201.60;;;;;;5113519;28;20422;-58
2021/01/17 07:04:15;;;;;;;27.67;12.80;;;13.70;2201.60;;;;;;5113435;28;20067;-57
2021/01/17 07:07:08;;;;;;;26.43;14.43;;;13.60;2201.60;;;;;;5104262;28;20127;-60
2021/01/17 07:09:37;;;;;;;25.53;12.83;;;13.70;2201.60;;;;;;5091462;28;20020;-57
2021/01/17 07:12:19;;;;;;;28.67;13.57;;;13.60;2201.60;;;;;;5082290;28;20023;-58
2021/01/17 07:14:56;;;;;;;23.60;12.33;;;13.60;2201.60;;;;;;5104313;28;20023;-58
2021/01/17 07:17:26;;;;;;;26.00;13.50;;;13.60;2201.60;;;;;;5101572;28;20016;-57
2021/01/17 07:19:58;;;;;;;22.00;11.57;;;13.20;2201.60;;;;;;5111418;28;20062;-58
2021/01/17 07:22:27;;;;;;;43.23;27.03;;;13.20;2201.60;;;;;;5113350;28;20024;-58
2021/01/17 07:24:52;;;;;;;;;;;13.00;2201.60;;;;;;5110668;28;20028;-58
2021/01/17 07:27:49;;;;;;;23.23;12.93;;;12.90;2201.60;;;;;;5101686;28;19903;-58
2021/01/17 07:30:35;;;;;;;26.40;13.03;;;0.00;2201.60;;;;;;5113178;28;20027;-59
2021/01/17 07:33:04;;;;;;;28.40;13.60;;;0.00;2201.60;;;;;;5030120;28;20038;-58
2021/01/17 07:35:39;;;;;;;27.70;13.73;;;0.00;2201.60;;;;;;5030359;28;20042;-58
2021/01/17 07:38:23;;;;;;;27.95;14.63;;;0.00;2201.60;;;;;;5050098;28;20032;-58
2021/01/17 07:40:59;;;;;;;29.37;14.47;;;13.00;2201.60;;;;;;5038763;28;20079;-59
2021/01/17 07:43:37;;;;;;;25.70;13.30;;;12.90;2201.60;;;;;;5035588;28;20049;-61
2021/01/17 07:46:05;;;;;;;23.65;12.95;;;0.00;2201.60;;;;;;5050495;28;20116;-58
2021/01/17 07:48:31;;;;;;;27.73;14.02;;;13.10;2201.60;;;;;;5050132;28;20039;-58
2021/01/17 07:51:00;;;;;;;29.88;16.33;;;12.90;2201.60;;;;;;5050514;28;20033;-58
2021/01/17 07:53:34;;;;;;;28.92;14.35;;;13.10;2201.60;;;;;;5049988;28;20029;-58
2021/01/17 07:56:06;;;;;;;29.43;14.47;;;12.90;2201.60;;;;;;5037037;28;20061;-58
2021/01/17 07:58:33;;;;;;;28.10;14.10;;;0.00;2201.60;;;;;;5049745;28;20033;-57
2021/01/17 08:01:00;;;;;;;30.63;15.03;;;12.90;2201.60;;;;;;5048682;28;20036;-57
2021/01/17 08:03:26;;;;;;;28.93;14.90;;;12.90;2201.60;;;;;;5040950;28;20577;-57
2021/01/17 08:05:54;;;;;;;29.33;14.97;;;0.00;2201.60;;;;;;5034129;28;20045;-57
2021/01/17 08:08:35;;;;;;;29.65;14.93;;;12.90;2201.60;;;;;;5034122;28;20061;-57
2021/01/17 08:11:04;;;;;;;31.88;15.48;;;12.90;2201.60;;;;;;5090817;28;20130;-58
2021/01/17 08:13:34;;;;;;;32.90;14.77;;;12.90;2201.60;;;;;;5095750;28;20028;-59
2021/01/17 08:16:09;;;;;;;28.60;13.75;;;0.10;2201.60;;;;;;5078446;28;20032;-58
2021/01/17 08:18:39;;;;;;;27.77;14.60;;;0.20;2201.60;;;;;;5090094;28;20021;-58
2021/01/17 08:21:17;;;;;;;24.98;12.35;;;0.10;2201.60;;;;;;5076031;28;20095;-58
2021/01/17 08:24:12;;;;;;;26.47;13.33;;;0.00;2201.60;;;;;;5075455;28;20110;-59
2021/01/17 08:27:02;;;;;;;24.45;13.95;;;0.20;2201.60;;;;;;4994462;28;20644;-58
2021/01/17 08:29:28;;;;;;;23.67;11.85;;;13.00;2201.60;;;;;;4994426;28;20042;-58
2021/01/17 08:31:54;;;;;;;20.52;11.68;;;0.00;2201.60;;;;;;4993818;28;20038;-60
2021/01/17 08:34:27;;;;;;;24.37;12.10;;;0.30;2201.60;;;;;;4994123;28;20046;-58
2021/01/17 08:36:55;;;;;;;21.67;10.23;;;0.40;2201.60;;;;;;4993930;28;20148;-57
2021/01/17 08:39:45;;;;;;;25.02;12.70;;;0.50;2201.60;;;;;;4985567;28;20042;-59
2021/01/17 08:42:27;;;;;;;20.02;11.13;;;0.80;2201.60;;;;;;4976860;28;20090;-58
2021/01/17 08:44:53;;;;;;;23.05;13.70;;;0.60;2201.60;;;;;;4993596;28;20030;-58
2021/01/17 08:47:22;;;;;;;24.98;13.45;;;0.80;2201.60;;;;;;4992865;28;20030;-58
2021/01/17 08:49:49;;;;;;;22.77;13.40;;;25.60;2201.60;;;;;;4994079;28;20035;-58
2021/01/17 08:52:34;;;;;;;26.58;15.57;;;25.80;2201.60;;;;;;4993680;28;20030;-56
2021/01/17 08:54:59;;;;;;;20.90;11.88;;;25.90;2150.40;;;;;;4977912;28;20534;-63
2021/01/17 08:57:41;;;;;;;23.02;13.52;;;26.10;2099.20;;;;;;4997675;28;20038;-63
2021/01/17 09:00:12;;;;;;;25.50;13.57;;;26.00;2124.80;;;;;;4980622;28;20062;-60
2021/01/17 09:02:38;;;;;;;25.42;13.40;;;26.20;2099.20;;;;;;5003393;28;20117;-60
2021/01/17 09:05:15;;;;;;;28.23;13.02;;;26.10;2073.60;;;;;;5087131;28;20131;-59
2021/01/17 09:07:42;;;;;;;24.08;13.15;;;26.00;2099.20;;;;;;5112327;28;20047;-58
2021/01/17 09:10:12;;;;;;;28.13;14.07;;;25.70;2201.60;;;;;;5114006;28;20016;-57
2021/01/17 09:12:38;;;;;;;27.08;16.35;;;26.10;2201.60;;;;;;5104518;28;20062;-57
2021/01/17 09:15:31;;;;;;;27.10;16.55;;;26.00;2176.00;;;;;;5105035;28;20036;-57
2021/01/17 09:17:58;;;;;;;23.40;14.63;;;25.60;2201.60;;;;;;5091945;28;20028;-57
2021/01/17 09:20:26;;;;;;;26.23;13.88;;;0.80;2201.60;;;;;;5095697;28;20099;-57
2021/01/17 09:22:54;;;;;;;27.23;14.95;;;25.60;2201.60;;;;;;5098487;28;20026;-57
2021/01/17 09:25:22;;;;;;;24.38;12.52;;;26.00;2176.00;;;;;;5115864;28;20031;-57
2021/01/17 09:27:50;;;;;;;21.33;12.20;;;26.30;2073.60;;;;;;5098926;28;20482;-57
2021/01/17 09:30:16;;;;;;;22.30;12.30;;;26.00;2099.20;;;;;;5095240;28;20099;-57
2021/01/17 09:32:43;;;;;;;22.00;13.70;;;26.10;2099.20;;;;;;5094889;28;20119;-58
2021/01/17 09:35:09;;;;;;;19.65;11.63;;;25.90;2073.60;;;;;;5101615;28;20106;-58
2021/01/17 09:37:35;;;;;;;18.17;11.13;;;25.60;2099.20;;;;;;5109464;28;20114;-58
2021/01/17 09:40:02;;;;;;;20.77;11.63;;;25.60;2099.20;;;;;;5076763;28;20043;-58
2021/01/17 09:42:29;;;;;;;20.33;11.50;;;25.90;2150.40;;;;;;5094600;28;20016;-57
2021/01/17 09:45:03;;;;;;;24.75;17.60;;;26.10;2099.20;;;;;;5076742;28;20375;-59
2021/01/17 09:47:29;;;;;;;21.02;12.77;;;26.10;2150.40;;;;;;5095168;28;20024;-59
2021/01/17 09:49:55;;;;;;;21.90;13.13;;;26.00;2124.80;;;;;;5095050;28;20016;-59
2021/01/17 09:52:23;;;;;;;22.65;13.35;;;26.30;2099.20;;;;;;5102617;28;20023;-58
2021/01/17 09:54:51;;;;;;;19.55;11.63;;;51.20;2099.20;;;;;;5105928;28;20028;-58
2021/01/17 09:57:21;;;;;;;24.40;12.48;;;51.30;1996.80;;;;;;5099087;28;20027;-59
2021/01/17 09:59:50;;;;;;;26.38;13.68;;;51.20;2048.00;;;;;;5101839;28;20040;-59
2021/01/17 10:02:17;;;;;;;22.48;13.25;;;51.20;2048.00;;;;;;5094303;28;20020;-61
2021/01/17 10:04:43;;;;;;;21.02;12.80;;;51.20;2048.00;;;;;;5094327;28;20461;-57
2021/01/17 10:07:17;;;;;;;20.80;12.30;;;26.40;2022.40;;;;;;5094233;28;20119;-60
2021/01/17 10:09:43;;;;;;;24.95;13.43;;;26.40;2048.00;;;;;;5094233;28;20529;-60
2021/01/17 10:12:10;;;;;;;23.30;12.55;;;26.50;2048.00;;;;;;5094408;28;20020;-59
2021/01/17 10:14:35;;;;;;;21.90;13.23;;;51.20;2048.00;;;;;;5075999;28;20031;-60
2021/01/17 10:17:05;;;;;;;22.50;13.73;;;51.30;2048.00;;;;;;5080185;28;20028;-57
2021/01/17 10:19:32;;;;;;;21.23;11.57;;;51.20;2048.00;;;;;;5098465;28;20053;-57
2021/01/17 10:22:02;;;;;;;21.37;12.07;;;51.20;2048.00;;;;;;5099518;28;20125;-57
2021/01/17 10:24:30;;;;;;;35.95;26.00;;;26.10;2124.80;;;;;;5093434;28;20592;-58
2021/01/17 10:26:58;;;;;;;24.08;13.35;;;26.30;2201.60;;;;;;5093859;28;20481;-56
2021/01/17 10:29:26;;;;;;;25.90;14.07;;;51.30;2227.20;;;;;;5094038;28;20047;-59
2021/01/17 10:32:00;;;;;;;25.90;14.73;;;51.40;2201.60;;;;;;5094884;28;20024;-58
2021/01/17 10:34:32;;;;;;;25.98;15.88;;;51.70;2150.40;;;;;;5102159;28;20028;-57
2021/01/17 10:37:00;;;;;;;23.10;13.20;;;51.70;2099.20;;;;;;5093629;28;20797;-56
2021/01/17 10:39:27;;;;;;;21.98;13.38;;;51.60;2073.60;;;;;;5093997;28;20067;-57
2021/01/17 10:42:02;;;;;;;23.00;13.88;;;26.50;2201.60;;;;;;5093522;28;20035;-57
2021/01/17 10:44:29;;;;;;;20.40;12.23;;;51.20;2227.20;;;;;;5084328;28;20020;-55
2021/01/17 10:47:06;;;;;;;21.13;11.63;;;51.30;2176.00;;;;;;5093738;28;20016;-55
2021/01/17 10:49:36;;;;;;;21.33;12.43;;;51.50;2150.40;;;;;;5093894;28;20035;-56
2021/01/17 10:52:09;;;;;;;20.25;10.65;;;51.40;2124.80;;;;;;5093459;28;20054;-55
2021/01/17 10:54:40;;;;;;;21.08;11.63;;;51.50;2124.80;;;;;;5093780;28;20084;-56
2021/01/17 10:57:07;;;;;;;18.40;11.02;;;51.50;2099.20;;;;;;5085599;28;20016;-56
2021/01/17 10:59:35;;;;;;;18.50;11.27;;;51.20;2124.80;;;;;;5093450;28;20032;-56
2021/01/17 11:02:01;;;;;;;21.45;11.55;;;51.30;2227.20;;;;;;5093082;28;20110;-55
2021/01/17 11:04:40;;;;;;;22.40;12.30;;;26.30;2201.60;;;;;;5097396;28;20119;-56
2021/01/17 11:07:07;;;;;;;23.27;12.88;;;51.20;2227.20;;;;;;5093268;28;20086;-56
2021/01/17 11:09:33;;;;;;;26.08;14.30;;;26.50;2201.60;;;;;;5093307;28;20024;-56
2021/01/17 11:12:00;;;;;;;23.27;12.75;;;26.50;2201.60;;;;;;5093276;28;20046;-56
2021/01/17 11:14:27;;;;;;;22.60;13.68;;;26.50;2201.60;;;;;;5092984;28;20023;-56
2021/01/17 11:16:54;;;;;;;25.45;13.40;;;51.30;2227.20;;;;;;5092791;28;20044;-56
2021/01/17 11:19:32;;;;;;;22.48;13.80;;;51.20;2201.60;;;;;;5092803;28;20032;-59
2021/01/17 11:21:59;;;;;;;15.75;9.75;;;51.20;2227.20;;;;;;5071049;28;20448;-56
2021/01/17 11:24:38;;;;;;;18.60;10.65;;;26.40;2124.80;;;;;;5093079;28;20032;-55
2021/01/17 11:27:10;;;;;;;19.63;12.60;;;26.00;2201.60;;;;;;5084998;28;20032;-55
2021/01/17 11:29:36;;;;;;;19.33;11.23;;;26.00;2201.60;;;;;;5074630;28;20036;-56
2021/01/17 11:32:02;;;;;;;18.67;11.40;;;25.80;2201.60;;;;;;5093036;28;20130;-56
2021/01/17 11:34:39;;;;;;;19.63;12.93;;;25.60;2201.60;;;;;;5093364;28;20040;-56
2021/01/17 11:37:06;;;;;;;22.90;12.65;;;25.90;2201.60;;;;;;5091363;28;20062;-56
2021/01/17 11:39:32;;;;;;;26.92;13.38;;;25.90;2201.60;;;;;;5092627;28;20040;-56
2021/01/17 11:41:58;;;;;;;22.42;12.35;;;26.10;2201.60;;;;;;5093274;28;20028;-55
2021/01/17 11:44:30;;;;;;;22.95;13.68;;;26.10;2201.60;;;;;;5092456;28;20450;-56
2021/01/17 11:46:56;;;;;;;28.27;15.45;;;26.10;2201.60;;;;;;5092635;28;20016;-55
2021/01/17 11:49:26;;;;;;;21.17;12.25;;;26.30;2201.60;;;;;;5092673;28;20036;-56
2021/01/17 11:51:52;;;;;;;22.48;13.15;;;26.40;2150.40;;;;;;5092765;28;20016;-56
2021/01/17 11:54:25;;;;;;;24.23;14.55;;;25.90;2201.60;;;;;;5084130;28;20047;-56
2021/01/17 11:57:05;;;;;;;23.80;13.60;;;26.00;2201.60;;;;;;5082284;28;20393;-56
2021/01/17 11:59:32;;;;;;;24.63;12.40;;;25.90;2201.60;;;;;;5078866;28;20039;-55
2021/01/17 12:02:23;;;;;;;18.88;11.48;;;0.90;2201.60;;;;;;5092391;28;20020;-56
2021/01/17 12:04:59;;;;;;;25.38;12.55;;;25.70;2201.60;;;;;;5092586;28;20111;-57
2021/01/17 12:07:26;;;;;;;20.48;11.18;;;25.90;2201.60;;;;;;5092495;28;20031;-57
2021/01/17 12:10:11;;;;;;;21.63;11.88;;;26.10;2201.60;;;;;;5092509;28;20031;-56
2021/01/17 12:12:40;;;;;;;19.27;11.43;;;26.10;2201.60;;;;;;5092317;28;20062;-57
2021/01/17 12:15:09;;;;;;;18.30;10.48;;;26.00;2201.60;;;;;;5092551;28;20028;-55
2021/01/17 12:17:36;;;;;;;18.50;11.05;;;26.00;2201.60;;;;;;5092243;28;20108;-55
2021/01/17 12:20:03;;;;;;;17.95;10.70;;;25.90;2201.60;;;;;;5092554;28;20036;-55